Time;durP1;ratioP1;P1;durP2;ratioP2;P2;SDS_P1;SDS_P2;PMS_P1;PMS_P2;Temp;Humidity;BMP_temperature;BMP_pressure;BME280_temperature;BME280_humidity;BME280_pressure;Samples;Min_cycle;Max_cycle;Signal;HPM_P1;HPM_P2
2021/05/30 00:02:06;;;;;;;4.65;1.80;;;;;;;10.33;62.49;97343.09;4976219;28;20503;-60
2021/05/30 00:04:32;;;;;;;3.13;1.90;;;;;;;10.28;62.86;97345.22;4962496;28;20108;-61
2021/05/30 00:06:57;;;;;;;3.25;1.60;;;;;;;10.39;62.07;97337.34;4965293;28;20125;-61
2021/05/30 00:09:22;;;;;;;2.55;1.55;;;;;;;10.25;62.49;97338.53;4961049;28;20069;-59
2021/05/30 00:11:48;;;;;;;2.50;1.70;;;;;;;10.26;62.46;97337.41;4963277;28;20053;-58
2021/05/30 00:14:13;;;;;;;5.20;1.85;;;;;;;10.20;62.30;97338.78;4959070;28;20583;-60
2021/05/30 00:16:39;;;;;;;3.72;1.85;;;;;;;10.11;63.23;97340.88;4979875;28;20061;-60
2021/05/30 00:19:04;;;;;;;2.50;1.52;;;;;;;10.07;63.43;97329.81;4970041;28;20134;-61
2021/05/30 00:21:30;;;;;;;2.13;1.45;;;;;;;10.11;63.06;97333.44;4978790;28;20403;-60
2021/05/30 00:23:58;;;;;;;2.83;1.73;;;;;;;10.17;62.90;97327.72;4974307;28;20498;-60
2021/05/30 00:26:23;;;;;;;4.30;1.77;;;;;;;10.16;63.09;97329.66;4976686;28;20774;-60
2021/05/30 00:28:48;;;;;;;3.50;1.52;;;;;;;10.10;63.06;97334.59;4983081;28;20042;-59
2021/05/30 00:31:14;;;;;;;4.72;1.67;;;;;;;10.01;63.11;97333.94;4977318;28;20046;-60
2021/05/30 00:33:40;;;;;;;2.78;1.58;;;;;;;10.01;63.42;97335.88;4982618;28;20522;-60
2021/05/30 00:36:06;;;;;;;2.88;1.63;;;;;;;9.92;64.35;97327.81;4973933;28;20089;-60
2021/05/30 00:38:31;;;;;;;6.93;1.60;;;;;;;9.93;63.19;97327.47;4965439;28;20073;-60
2021/05/30 00:40:58;;;;;;;2.58;1.42;;;;;;;9.91;63.45;97326.22;4967866;28;20440;-60
2021/05/30 00:43:24;;;;;;;2.78;1.58;;;;;;;9.87;63.57;97330.81;4972232;28;20607;-60
2021/05/30 00:45:49;;;;;;;1.92;1.30;;;;;;;9.86;63.22;97323.72;4980146;28;20050;-61
2021/05/30 00:48:16;;;;;;;2.67;1.48;;;;;;;9.91;62.96;97328.97;4974496;28;20513;-60
2021/05/30 00:50:41;;;;;;;3.03;1.70;;;;;;;9.93;63.46;97329.41;4976602;28;20057;-60
2021/05/30 00:53:07;;;;;;;4.57;1.45;;;;;;;9.94;63.35;97322.81;4975362;28;20038;-59
2021/05/30 00:55:32;;;;;;;3.10;1.83;;;;;;;9.94;63.21;97323.59;4984845;28;20566;-62
2021/05/30 00:57:58;;;;;;;3.67;1.65;;;;;;;9.89;63.13;97320.31;4986684;28;20053;-60
2021/05/30 01:00:24;;;;;;;2.78;1.70;;;;;;;9.91;63.31;97312.53;4977523;28;20073;-59
2021/05/30 01:02:50;;;;;;;3.05;1.70;;;;;;;9.94;62.73;97325.53;4971055;28;20145;-56
2021/05/30 01:05:17;;;;;;;2.58;1.77;;;;;;;10.01;62.59;97320.28;4958834;28;20504;-61
2021/05/30 01:07:45;;;;;;;5.35;1.73;;;;;;;10.01;62.62;97330.41;4960928;28;20080;-62
2021/05/30 01:10:45;;;;;;;3.28;1.77;;;;;;;10.10;62.02;97322.84;4957753;28;20493;-59
2021/05/30 01:13:12;;;;;;;2.38;1.50;;;;;;;10.12;62.30;97323.31;4946092;28;20397;-60
2021/05/30 01:15:38;;;;;;;3.10;1.70;;;;;;;10.07;62.71;97324.34;4989592;28;20049;-61
2021/05/30 01:18:04;;;;;;;2.20;1.55;;;;;;;10.10;61.94;97325.56;4978107;28;20042;-60
2021/05/30 01:20:29;;;;;;;2.63;1.58;;;;;;;10.07;62.30;97323.56;4981749;28;20046;-60
2021/05/30 01:22:55;;;;;;;3.10;1.73;;;;;;;10.15;61.80;97325.31;4980788;28;20034;-60
2021/05/30 01:25:23;;;;;;;3.53;1.70;;;;;;;10.12;61.84;97315.88;4974806;28;20034;-57
2021/05/30 01:27:51;;;;;;;1.38;1.17;;;;;;;10.16;61.82;97320.66;4972082;28;20104;-57
2021/05/30 01:30:18;;;;;;;5.03;1.80;;;;;;;10.09;61.79;97315.78;4966424;28;20042;-61
2021/05/30 01:32:46;;;;;;;3.38;1.40;;;;;;;10.18;61.34;97319.16;4975473;28;20045;-59
2021/05/30 01:35:12;;;;;;;3.20;1.65;;;;;;;10.20;61.29;97316.09;4964940;28;20042;-61
2021/05/30 01:37:38;;;;;;;3.92;1.60;;;;;;;10.10;62.07;97320.09;4965828;28;20047;-61
2021/05/30 01:40:04;;;;;;;2.40;1.55;;;;;;;10.06;61.92;97317.25;4973168;28;20167;-60
2021/05/30 01:42:30;;;;;;;2.95;1.60;;;;;;;10.13;62.20;97320.19;4980224;28;20097;-61
2021/05/30 01:44:55;;;;;;;2.85;1.25;;;;;;;10.00;62.86;97317.88;4967096;28;20432;-61
2021/05/30 01:47:21;;;;;;;2.17;1.40;;;;;;;9.95;63.15;97321.63;4977711;28;20152;-61
2021/05/30 01:49:46;;;;;;;3.50;1.63;;;;;;;9.94;63.00;97320.06;4982755;28;20069;-63
2021/05/30 01:52:12;;;;;;;4.70;1.73;;;;;;;9.88;63.12;97316.75;4992277;28;20047;-63
2021/05/30 01:54:42;;;;;;;8.65;1.83;;;;;;;10.00;62.26;97324.13;4993787;28;20462;-61
2021/05/30 01:57:09;;;;;;;4.57;1.73;;;;;;;9.91;63.18;97321.53;4994019;28;20050;-61
2021/05/30 01:59:35;;;;;;;2.45;1.50;;;;;;;9.90;63.16;97316.41;4987635;28;20046;-57
2021/05/30 02:02:02;;;;;;;2.75;1.70;;;;;;;9.88;62.95;97311.28;4972467;28;20047;-60
2021/05/30 02:04:34;;;;;;;3.65;1.60;;;;;;;9.90;62.94;97319.16;4962207;28;20043;-58
2021/05/30 02:07:00;;;;;;;2.30;1.55;;;;;;;9.81;63.03;97315.75;4990947;28;20061;-59
2021/05/30 02:09:26;;;;;;;4.05;2.00;;;;;;;9.88;63.24;97307.75;4991796;28;20043;-59
2021/05/30 02:11:52;;;;;;;4.07;2.00;;;;;;;9.73;63.84;97309.28;4974251;28;20046;-59
2021/05/30 02:14:18;;;;;;;2.72;1.85;;;;;;;9.75;63.48;97307.00;4981054;28;20516;-60
2021/05/30 02:16:44;;;;;;;3.28;1.67;;;;;;;9.70;64.42;97307.22;4986135;28;20149;-59
2021/05/30 02:19:10;;;;;;;2.50;1.83;;;;;;;9.69;64.27;97306.44;4980227;28;20136;-60
2021/05/30 02:21:40;;;;;;;6.72;1.98;;;;;;;9.68;63.87;97304.84;4984207;28;20494;-60
2021/05/30 02:24:06;;;;;;;3.30;1.75;;;;;;;9.82;63.25;97307.22;4980229;28;20038;-59
2021/05/30 02:26:31;;;;;;;4.88;1.77;;;;;;;9.74;63.64;97310.88;4984879;28;20045;-60
2021/05/30 02:28:57;;;;;;;3.00;1.65;;;;;;;9.58;64.64;97316.28;4984883;28;20042;-59
2021/05/30 02:31:22;;;;;;;3.88;1.52;;;;;;;9.64;64.23;97317.63;4976428;28;20581;-61
2021/05/30 02:33:48;;;;;;;2.13;1.80;;;;;;;9.59;64.77;97312.38;4983628;28;20046;-60
2021/05/30 02:36:13;;;;;;;3.42;1.80;;;;;;;9.55;64.50;97330.63;4971230;28;20133;-60
2021/05/30 02:38:39;;;;;;;3.83;2.20;;;;;;;9.57;64.36;97314.69;4977359;28;20488;-59
2021/05/30 02:41:04;;;;;;;2.97;1.83;;;;;;;9.49;65.19;97323.78;4960100;28;20050;-60
2021/05/30 02:43:30;;;;;;;5.93;2.10;;;;;;;9.49;64.98;97324.59;4964405;28;20138;-61
2021/05/30 02:45:56;;;;;;;2.70;1.73;;;;;;;9.50;65.34;97320.72;4964137;28;20046;-60
2021/05/30 02:48:21;;;;;;;2.83;1.88;;;;;;;9.46;65.55;97327.22;4960274;28;20536;-62
2021/05/30 02:50:58;;;;;;;5.30;2.30;;;;;;;9.34;66.05;97331.56;4982918;28;20038;-59
2021/05/30 02:53:27;;;;;;;3.47;2.25;;;;;;;9.37;65.88;97335.56;4958362;28;20545;-59
2021/05/30 02:55:53;;;;;;;2.95;2.03;;;;;;;9.33;66.07;97331.91;4971090;28;20120;-60
2021/05/30 02:58:19;;;;;;;2.75;1.90;;;;;;;9.32;65.80;97336.56;4960657;28;20528;-59
2021/05/30 03:00:44;;;;;;;3.50;2.35;;;;;;;9.28;66.18;97334.88;4972762;28;20050;-60
2021/05/30 03:03:10;;;;;;;4.75;2.10;;;;;;;9.21;66.56;97334.66;4977114;28;20035;-59
2021/05/30 03:05:36;;;;;;;2.60;1.90;;;;;;;9.12;67.07;97327.34;4979060;28;20043;-61
2021/05/30 03:08:01;;;;;;;4.07;2.22;;;;;;;9.09;67.05;97338.16;4980935;28;20176;-59
2021/05/30 03:10:27;;;;;;;4.32;2.45;;;;;;;9.02;66.89;97333.28;4975840;28;20071;-60
2021/05/30 03:12:52;;;;;;;3.55;2.00;;;;;;;8.97;67.04;97334.31;4978506;28;20069;-61
2021/05/30 03:15:18;;;;;;;2.53;2.03;;;;;;;9.05;67.49;97332.59;4977804;28;20047;-60
2021/05/30 03:17:43;;;;;;;3.15;2.10;;;;;;;9.08;66.95;97326.44;4977420;28;20053;-60
2021/05/30 03:20:10;;;;;;;3.53;2.25;;;;;;;9.00;67.92;97341.00;4959161;28;20039;-59
2021/05/30 03:22:35;;;;;;;4.80;2.15;;;;;;;9.06;67.25;97345.13;4978951;28;20074;-58
2021/05/30 03:25:01;;;;;;;3.67;2.10;;;;;;;8.94;67.68;97340.44;4978629;28;20081;-62
2021/05/30 03:27:26;;;;;;;5.38;2.38;;;;;;;8.97;67.76;97341.72;4975076;28;20038;-60
2021/05/30 03:29:51;;;;;;;3.58;2.38;;;;;;;8.93;67.67;97341.59;4982728;28;20050;-61
2021/05/30 03:32:17;;;;;;;3.20;2.40;;;;;;;9.01;67.41;97333.63;4977477;28;20042;-61
2021/05/30 03:34:42;;;;;;;4.15;2.42;;;;;;;8.94;67.99;97336.91;4982456;28;20096;-57
2021/05/30 03:37:08;;;;;;;3.70;2.40;;;;;;;8.95;67.87;97346.72;4970049;28;20112;-60
2021/05/30 03:39:38;;;;;;;4.53;2.72;;;;;;;8.94;67.56;97342.38;4982765;28;20046;-60
2021/05/30 03:42:09;;;;;;;4.90;2.55;;;;;;;8.95;67.57;97339.31;4974065;28;20045;-61
2021/05/30 03:44:35;;;;;;;4.22;2.60;;;;;;;8.92;68.44;97336.47;4972546;28;20460;-60
2021/05/30 03:47:00;;;;;;;6.70;2.50;;;;;;;8.99;67.92;97339.44;4983748;28;20113;-61
2021/05/30 03:49:26;;;;;;;4.07;2.45;;;;;;;9.01;67.52;97347.28;4978008;28;20559;-59
2021/05/30 03:51:51;;;;;;;3.50;2.03;;;;;;;8.99;67.44;97339.44;4983600;28;20039;-60
2021/05/30 03:54:17;;;;;;;4.45;2.50;;;;;;;9.09;67.40;97340.91;4978452;28;20042;-60
2021/05/30 03:56:42;;;;;;;5.30;2.80;;;;;;;9.07;67.95;97334.97;4981974;28;20038;-59
2021/05/30 03:59:08;;;;;;;4.65;2.50;;;;;;;9.19;67.34;97343.19;4969560;28;20569;-60
2021/05/30 04:01:35;;;;;;;4.35;2.65;;;;;;;9.22;67.04;97338.97;4975670;28;20108;-59
2021/05/30 04:04:00;;;;;;;4.65;2.75;;;;;;;9.21;67.54;97334.66;4980776;28;20046;-60
2021/05/30 04:06:26;;;;;;;5.53;2.90;;;;;;;9.34;66.01;97333.50;4974885;28;20046;-62
2021/05/30 04:08:51;;;;;;;4.10;2.55;;;;;;;9.41;65.87;97338.41;4980814;28;20045;-60
2021/05/30 04:11:18;;;;;;;5.15;2.80;;;;;;;9.47;65.44;97334.28;4973364;28;20511;-61
2021/05/30 04:13:44;;;;;;;3.75;2.53;;;;;;;9.51;65.31;97337.94;4976925;28;20046;-61
2021/05/30 04:16:10;;;;;;;3.42;2.30;;;;;;;9.47;66.14;97345.22;4976736;28;20038;-61
2021/05/30 04:18:36;;;;;;;5.45;2.83;;;;;;;9.51;65.13;97338.72;4980628;28;20046;-60
2021/05/30 04:21:02;;;;;;;7.53;2.65;;;;;;;9.60;65.07;97337.78;4980980;28;20074;-61
2021/05/30 04:23:27;;;;;;;3.22;2.17;;;;;;;9.61;65.19;97334.72;4982324;28;20042;-61
2021/05/30 04:25:53;;;;;;;4.65;2.40;;;;;;;9.62;64.76;97330.06;4997735;28;20479;-57
2021/05/30 04:28:19;;;;;;;3.85;2.08;;;;;;;9.69;64.82;97333.00;4976372;28;20049;-59
2021/05/30 04:30:44;;;;;;;4.47;2.30;;;;;;;9.74;64.23;97325.34;4981272;28;20495;-58
2021/05/30 04:33:10;;;;;;;3.35;2.50;;;;;;;9.80;64.19;97327.84;4976039;28;20121;-60
2021/05/30 04:35:35;;;;;;;6.60;2.30;;;;;;;9.86;63.97;97324.50;4981086;28;20046;-58
2021/05/30 04:38:01;;;;;;;3.63;2.05;;;;;;;9.92;63.66;97317.66;4981231;28;20496;-60
2021/05/30 04:40:26;;;;;;;2.90;2.20;;;;;;;9.96;64.04;97325.97;4970142;28;20065;-59
2021/05/30 04:42:52;;;;;;;4.95;2.28;;;;;;;10.00;63.40;97323.34;4981543;28;20971;-57
2021/05/30 04:45:19;;;;;;;3.72;2.55;;;;;;;10.03;63.13;97317.16;4974166;28;20077;-60
2021/05/30 04:47:45;;;;;;;5.40;2.33;;;;;;;10.09;63.23;97318.53;4977512;28;20049;-58
2021/05/30 04:50:11;;;;;;;6.25;2.22;;;;;;;10.26;62.49;97312.75;4974013;28;20042;-60
2021/05/30 04:52:38;;;;;;;5.43;2.63;;;;;;;10.60;60.96;97307.78;4980234;28;20066;-60
2021/05/30 04:55:04;;;;;;;4.80;2.03;;;;;;;11.17;60.26;97313.91;4969216;28;20465;-61
2021/05/30 04:57:29;;;;;;;4.43;2.05;;;;;;;11.37;59.09;97311.22;4984417;28;20074;-60
2021/05/30 04:59:54;;;;;;;3.65;1.95;;;;;;;12.31;57.75;97308.50;4977505;28;20133;-60
2021/05/30 05:02:20;;;;;;;4.57;2.05;;;;;;;11.99;57.43;97311.41;4973524;28;20492;-59
2021/05/30 05:04:45;;;;;;;11.50;5.97;;;;;;;12.15;56.21;97297.59;4979587;28;20357;-59
2021/05/30 05:07:11;;;;;;;3.47;2.10;;;;;;;11.82;57.22;97305.16;4971968;28;20100;-61
2021/05/30 05:09:36;;;;;;;3.85;2.13;;;;;;;11.81;57.45;97308.25;4978505;28;20057;-60
2021/05/30 05:12:01;;;;;;;5.70;2.42;;;;;;;12.16;56.95;97301.97;4979005;28;20048;-59
2021/05/30 05:14:27;;;;;;;3.17;2.13;;;;;;;11.90;57.03;97302.56;4970173;28;20043;-60
2021/05/30 05:16:52;;;;;;;5.03;2.05;;;;;;;12.15;57.13;97305.84;4973269;28;20050;-59
2021/05/30 05:19:18;;;;;;;3.85;2.08;;;;;;;12.18;56.59;97300.44;4969962;28;20081;-57
2021/05/30 05:21:43;;;;;;;3.60;2.33;;;;;;;12.50;56.02;97307.72;4978874;28;20077;-59
2021/05/30 05:24:09;;;;;;;3.13;2.00;;;;;;;12.78;55.81;97310.16;4970739;28;20046;-59
2021/05/30 05:26:34;;;;;;;4.78;2.72;;;;;;;12.54;55.96;97301.09;4976455;28;20093;-60
2021/05/30 05:29:00;;;;;;;4.20;2.22;;;;;;;12.90;55.96;97314.69;4972526;28;20066;-61
2021/05/30 05:31:25;;;;;;;6.50;2.30;;;;;;;13.10;56.41;97307.16;4975865;28;20046;-61
2021/05/30 05:33:50;;;;;;;4.07;2.50;;;;;;;13.05;54.43;97299.22;4980549;28;20535;-60
2021/05/30 05:36:16;;;;;;;4.00;2.13;;;;;;;13.00;54.97;97301.13;4966926;28;20046;-60
2021/05/30 05:38:43;;;;;;;3.92;2.33;;;;;;;12.68;55.69;97311.56;4979337;28;20121;-59
2021/05/30 05:41:08;;;;;;;6.57;2.65;;;;;;;12.60;57.33;97316.16;4971926;28;20080;-60
2021/05/30 05:43:33;;;;;;;3.90;2.40;;;;;;;12.41;57.28;97307.94;4977675;28;20549;-64
2021/05/30 05:45:59;;;;;;;3.63;2.40;;;;;;;12.32;57.32;97310.13;4987045;28;20427;-62
2021/05/30 05:48:24;;;;;;;4.55;2.47;;;;;;;12.55;56.81;97308.19;4979454;28;20117;-60
2021/05/30 05:50:50;;;;;;;3.28;2.17;;;;;;;13.04;56.29;97314.13;4974679;28;20050;-60
2021/05/30 05:53:16;;;;;;;4.53;2.40;;;;;;;13.70;54.31;97306.50;4972147;28;20068;-59
2021/05/30 05:55:42;;;;;;;4.07;2.40;;;;;;;14.56;51.36;97310.28;4974833;28;20470;-61
2021/05/30 05:58:08;;;;;;;3.38;2.05;;;;;;;13.79;52.77;97315.25;4967170;28;20065;-61
2021/05/30 06:00:34;;;;;;;5.35;2.20;;;;;;;13.24;54.57;97314.84;4981031;28;20046;-59
2021/05/30 06:02:59;;;;;;;4.00;2.20;;;;;;;13.87;52.85;97314.22;4980599;28;20129;-60
2021/05/30 06:05:25;;;;;;;3.67;2.00;;;;;;;14.36;51.69;97311.66;4969218;28;20469;-61
2021/05/30 06:07:53;;;;;;;3.33;2.10;;;;;;;14.00;52.87;97314.75;4980126;28;20054;-61
2021/05/30 06:10:24;;;;;;;3.42;2.03;;;;;;;13.86;53.29;97309.84;4968208;28;20042;-62
2021/05/30 06:12:53;;;;;;;3.45;2.33;;;;;;;13.92;53.44;97313.09;4974319;28;20049;-62
2021/05/30 06:15:20;;;;;;;3.70;2.20;;;;;;;14.52;52.48;97303.94;4967870;28;20488;-59
2021/05/30 06:17:52;;;;;;;5.15;1.85;;;;;;;14.66;50.98;97308.84;4980899;28;20049;-61
2021/05/30 06:20:18;;;;;;;5.53;2.30;;;;;;;14.19;52.36;97315.75;4975350;28;20511;-62
2021/05/30 06:22:44;;;;;;;5.50;2.03;;;;;;;14.19;53.01;97307.50;4979394;28;20046;-62
2021/05/30 06:25:10;;;;;;;2.95;2.00;;;;;;;14.02;53.63;97309.66;4972819;28;20482;-61
2021/05/30 06:27:35;;;;;;;4.30;2.30;;;;;;;14.48;52.13;97306.66;4979398;28;20042;-60
2021/05/30 06:30:01;;;;;;;3.85;2.60;;;;;;;13.54;54.72;97307.47;4982958;28;20046;-62
2021/05/30 06:32:26;;;;;;;4.07;1.98;;;;;;;14.12;53.12;97308.22;4984785;28;20066;-62
2021/05/30 06:34:51;;;;;;;3.97;2.30;;;;;;;14.39;52.65;97300.66;4988256;28;20151;-61
2021/05/30 06:37:17;;;;;;;3.63;2.20;;;;;;;14.66;51.08;97311.63;4970044;28;20052;-60
2021/05/30 06:39:43;;;;;;;3.97;1.98;;;;;;;15.42;50.41;97302.78;4973909;28;20830;-60
2021/05/30 06:42:08;;;;;;;3.83;2.38;;;;;;;14.85;51.11;97294.84;4971808;28;20556;-58
2021/05/30 06:44:34;;;;;;;11.82;2.38;;;;;;;14.88;51.24;97299.59;4981734;28;20082;-61
2021/05/30 06:46:59;;;;;;;6.35;2.05;;;;;;;15.07;50.63;97292.25;4981787;28;20415;-61
2021/05/30 06:49:25;;;;;;;3.58;2.08;;;;;;;14.38;51.07;97304.59;4978167;28;20054;-61
2021/05/30 06:51:51;;;;;;;4.03;2.13;;;;;;;14.75;52.22;97298.31;4982036;28;20046;-61
2021/05/30 06:54:16;;;;;;;3.80;1.83;;;;;;;15.61;49.78;97300.91;4976110;28;20042;-61
2021/05/30 06:56:42;;;;;;;4.70;2.20;;;;;;;14.61;51.72;97295.41;4982556;28;20200;-61
2021/05/30 06:59:07;;;;;;;6.70;2.22;;;;;;;15.05;50.99;97291.84;4978098;28;20484;-61
2021/05/30 07:01:33;;;;;;;3.72;2.20;;;;;;;14.89;51.04;97287.41;4982051;28;20038;-60
2021/05/30 07:03:58;;;;;;;3.33;2.00;;;;;;;15.27;50.06;97290.06;4975857;28;20047;-62
2021/05/30 07:06:24;;;;;;;3.33;2.25;;;;;;;14.70;51.65;97293.13;4989185;28;20680;-61
2021/05/30 07:08:49;;;;;;;4.22;1.75;;;;;;;15.27;51.28;97295.59;4975310;28;20050;-60
2021/05/30 07:11:15;;;;;;;2.60;1.65;;;;;;;15.52;50.92;97298.53;4978152;28;20053;-60
2021/05/30 07:13:40;;;;;;;3.80;2.17;;;;;;;15.59;50.17;97293.03;4982911;28;20064;-58
2021/05/30 07:16:06;;;;;;;4.65;2.40;;;;;;;16.10;49.46;97293.31;4978858;28;20053;-60
2021/05/30 07:18:32;;;;;;;5.25;2.30;;;;;;;16.08;47.72;97301.19;4982701;28;20050;-59
2021/05/30 07:20:59;;;;;;;4.28;1.77;;;;;;;16.53;47.52;97294.25;4982130;28;20392;-58
2021/05/30 07:23:25;;;;;;;3.70;1.70;;;;;;;16.02;48.44;97298.00;4975111;28;20037;-57
2021/05/30 07:25:51;;;;;;;4.38;2.00;;;;;;;14.98;50.07;97294.56;4980018;28;20050;-59
2021/05/30 07:28:17;;;;;;;3.00;1.92;;;;;;;15.94;49.25;97296.41;4970319;28;20069;-58
2021/05/30 07:30:43;;;;;;;2.15;1.50;;;;;;;16.05;48.40;97294.47;4983305;28;20523;-61
2021/05/30 07:33:09;;;;;;;6.25;2.00;;;;;;;15.82;49.78;97295.53;4977056;28;20043;-59
2021/05/30 07:35:35;;;;;;;5.68;2.33;;;;;;;15.76;49.49;97282.50;4983047;28;20808;-58
2021/05/30 07:38:01;;;;;;;5.10;1.90;;;;;;;16.75;47.16;97292.31;4982221;28;20416;-59
2021/05/30 07:40:27;;;;;;;3.55;1.60;;;;;;;17.08;45.56;97281.28;4976703;28;20052;-57
2021/05/30 07:42:53;;;;;;;2.78;1.88;;;;;;;17.53;46.00;97285.19;4976676;28;20385;-61
2021/05/30 07:45:19;;;;;;;3.08;1.80;;;;;;;16.44;46.97;97286.31;4973456;28;20046;-59
2021/05/30 07:47:46;;;;;;;2.22;1.55;;;;;;;16.94;45.55;97284.84;4980396;28;20050;-63
2021/05/30 07:50:13;;;;;;;3.13;1.45;;;;;;;16.09;45.68;97280.69;4975003;28;20047;-61
2021/05/30 07:52:39;;;;;;;3.17;1.55;;;;;;;16.42;47.20;97277.63;4976420;28;20049;-61
2021/05/30 07:55:07;;;;;;;3.08;1.70;;;;;;;16.84;47.10;97282.88;4974596;28;20042;-60
2021/05/30 07:57:32;;;;;;;2.55;1.60;;;;;;;17.37;45.64;97282.84;4982290;28;20046;-61
2021/05/30 07:59:58;;;;;;;4.28;2.60;;;;;;;17.39;45.29;97277.72;4981876;28;20607;-61
2021/05/30 08:02:24;;;;;;;2.88;1.77;;;;;;;16.82;46.32;97272.16;4970397;28;20042;-61
2021/05/30 08:04:50;;;;;;;5.85;2.35;;;;;;;16.98;45.85;97277.34;4982060;28;20054;-61
2021/05/30 08:07:16;;;;;;;5.78;1.80;;;;;;;16.58;45.03;97274.50;4974214;28;20845;-61
2021/05/30 08:09:41;;;;;;;2.13;1.42;;;;;;;16.66;45.90;97280.06;4974678;28;20065;-60
2021/05/30 08:12:07;;;;;;;2.75;1.70;;;;;;;16.80;46.51;97282.84;4972007;28;20051;-61
2021/05/30 08:14:33;;;;;;;3.25;1.92;;;;;;;17.55;44.15;97282.03;4984016;28;20046;-61
2021/05/30 08:16:59;;;;;;;3.55;1.80;;;;;;;16.76;45.76;97285.59;4982997;28;20046;-62
2021/05/30 08:19:24;;;;;;;2.38;1.42;;;;;;;17.08;42.84;97282.06;4968615;28;20575;-62
2021/05/30 08:21:50;;;;;;;8.02;2.33;;;;;;;16.32;43.58;97275.63;4977255;28;20149;-61
2021/05/30 08:24:16;;;;;;;3.22;1.90;;;;;;;16.94;45.51;97285.66;4972887;28;20420;-61
2021/05/30 08:26:42;;;;;;;5.00;1.77;;;;;;;16.98;44.25;97283.66;4974863;28;20046;-58
2021/05/30 08:29:07;;;;;;;2.20;1.70;;;;;;;16.60;45.38;97282.41;4969474;28;20042;-60
2021/05/30 08:31:33;;;;;;;3.47;1.80;;;;;;;16.76;42.89;97282.03;4980747;28;20483;-60
2021/05/30 08:33:58;;;;;;;2.42;1.40;;;;;;;17.15;42.28;97290.38;4981947;28;20038;-61
2021/05/30 08:36:24;;;;;;;1.88;1.35;;;;;;;17.05;43.23;97293.97;4976161;28;20461;-59
2021/05/30 08:38:49;;;;;;;3.33;1.55;;;;;;;17.08;42.41;97287.63;4975663;28;20050;-59
2021/05/30 08:41:19;;;;;;;2.80;1.40;;;;;;;17.57;42.85;97291.53;4975060;28;20038;-61
2021/05/30 08:43:44;;;;;;;2.28;1.58;;;;;;;17.66;42.69;97288.34;4975423;28;20043;-61
2021/05/30 08:46:10;;;;;;;3.67;1.40;;;;;;;17.74;41.21;97289.13;4974109;28;20046;-59
2021/05/30 08:48:36;;;;;;;3.33;1.40;;;;;;;17.99;40.93;97289.09;4981018;28;20124;-60
2021/05/30 08:51:05;;;;;;;4.03;2.13;;;;;;;16.71;41.75;97293.47;4981102;28;20042;-59
2021/05/30 08:53:40;;;;;;;2.43;1.50;;;;;;;16.73;43.00;97299.44;4969500;28;20097;-60
2021/05/30 08:56:08;;;;;;;4.70;1.80;;;;;;;17.22;44.13;97286.03;4969993;28;20050;-60
2021/05/30 08:58:38;;;;;;;3.05;1.67;;;;;;;16.67;43.83;97287.94;4983500;28;20061;-60
2021/05/30 09:01:25;;;;;;;2.70;1.38;;;;;;;17.68;42.01;97290.72;4982470;28;20046;-60
2021/05/30 09:03:55;;;;;;;2.70;1.80;;;;;;;17.10;42.28;97296.31;4981452;28;20451;-61
2021/05/30 09:06:21;;;;;;;;;;;;;;;17.14;41.54;97288.00;4977005;28;20495;-59
2021/05/30 09:08:50;;;;;;;6.50;1.90;;;;;;;17.30;41.64;97295.91;4969719;28;19960;-60
2021/05/30 09:11:38;;;;;;;3.63;1.80;;;;;;;17.30;41.54;97301.44;4963908;28;20046;-60
2021/05/30 09:14:05;;;;;;;5.13;1.88;;;;;;;17.38;42.55;97301.03;4969885;28;20302;-61
2021/05/30 09:17:00;;;;;;;3.08;1.55;;;;;;;16.75;43.24;97291.53;4979739;28;20053;-58
2021/05/30 09:19:40;;;;;;;2.90;1.70;;;;;;;17.10;42.00;97298.28;4954225;28;20566;-61
2021/05/30 09:22:22;;;;;;;;;;;;;;;17.26;42.92;97292.38;4974752;28;20038;-61
2021/05/30 09:24:47;;;;;;;2.92;1.58;;;;;;;17.68;41.99;97290.72;4981015;28;19913;-59
2021/05/30 09:27:12;;;;;;;3.17;1.70;;;;;;;17.00;43.45;97291.59;4975526;28;20065;-60
2021/05/30 09:29:38;;;;;;;3.20;1.80;;;;;;;17.08;42.39;97292.38;4968701;28;20055;-61
2021/05/30 09:32:04;;;;;;;3.58;1.75;;;;;;;17.38;40.51;97294.72;4967673;28;20058;-60
2021/05/30 09:34:36;;;;;;;1.60;1.17;;;;;;;17.46;42.17;97303.81;4986279;28;20062;-59
2021/05/30 09:37:03;;;;;;;3.17;1.58;;;;;;;17.62;41.90;97303.41;4978460;28;20046;-62
2021/05/30 09:39:46;;;;;;;1.90;1.25;;;;;;;17.45;41.29;97299.44;4975503;28;20055;-59
2021/05/30 09:42:33;;;;;;;2.17;1.30;;;;;;;17.43;40.00;97296.28;4971568;28;20049;-61
2021/05/30 09:45:09;;;;;;;2.97;1.65;;;;;;;17.38;40.56;97289.19;4973302;28;20129;-59
2021/05/30 09:47:36;;;;;;;3.65;1.70;;;;;;;18.23;40.79;97292.94;4979948;28;20069;-61
2021/05/30 09:50:09;;;;;;;3.13;1.70;;;;;;;16.77;39.82;97292.69;4964795;28;20043;-60
2021/05/30 09:52:41;;;;;;;3.38;1.52;;;;;;;17.20;41.16;97294.75;4971587;28;20061;-60
2021/05/30 09:55:21;;;;;;;2.67;1.42;;;;;;;17.31;41.31;97295.50;4967439;28;20039;-61
2021/05/30 09:58:16;;;;;;;3.35;1.42;;;;;;;17.41;40.15;97295.91;4979760;28;20121;-61
2021/05/30 10:00:56;;;;;;;2.88;1.65;;;;;;;17.84;39.21;97296.59;4980783;28;20141;-61
2021/05/30 10:03:23;;;;;;;4.35;1.27;;;;;;;18.20;40.66;97301.25;4973782;28;20570;-59
2021/05/30 10:05:49;;;;;;;3.28;1.15;;;;;;;18.72;39.93;97295.84;4972908;28;20507;-63
2021/05/30 10:08:19;;;;;;;4.70;1.60;;;;;;;17.72;38.62;97306.16;4975795;28;20107;-62
2021/05/30 10:10:45;;;;;;;5.25;1.70;;;;;;;17.81;39.00;97297.41;4980978;28;20089;-59
2021/05/30 10:13:11;;;;;;;1.92;1.13;;;;;;;17.36;37.73;97297.88;4967728;28;20066;-62
2021/05/30 10:15:38;;;;;;;3.28;1.25;;;;;;;18.03;36.89;97302.94;4984016;28;20069;-59
2021/05/30 10:18:23;;;;;;;1.13;0.90;;;;;;;18.99;36.00;97296.06;4980154;28;20069;-61
2021/05/30 10:20:50;;;;;;;2.75;1.50;;;;;;;19.01;36.66;97290.91;4968146;28;20094;-62
2021/05/30 10:23:18;;;;;;;4.85;1.30;;;;;;;18.98;35.13;97291.72;4976474;28;20042;-62
2021/05/30 10:25:44;;;;;;;1.30;0.93;;;;;;;18.49;36.36;97301.91;4977985;28;20053;-62
2021/05/30 10:28:16;;;;;;;2.10;0.85;;;;;;;18.02;35.52;97293.03;4971896;28;20042;-60
2021/05/30 10:30:46;;;;;;;2.40;1.10;;;;;;;17.82;35.58;97290.66;4982799;28;20411;-60
2021/05/30 10:33:16;;;;;;;1.30;0.98;;;;;;;17.74;34.46;97266.97;4969304;28;20046;-60
2021/05/30 10:35:55;;;;;;;2.63;1.30;;;;;;;17.88;36.51;97271.69;4976618;28;20090;-59
2021/05/30 10:38:42;;;;;;;2.85;1.33;;;;;;;17.93;34.98;97285.94;4961222;28;20114;-58
2021/05/30 10:41:20;;;;;;;3.80;0.80;;;;;;;17.77;35.34;97280.81;4959813;28;20046;-60
2021/05/30 10:43:47;;;;;;;2.20;1.17;;;;;;;18.07;34.61;97276.75;4965005;28;20515;-60
2021/05/30 10:46:13;;;;;;;1.65;0.90;;;;;;;17.52;33.49;97275.31;4960424;28;20404;-60
2021/05/30 10:48:40;;;;;;;3.22;1.05;;;;;;;17.81;34.07;97288.28;4968468;28;20505;-63
2021/05/30 10:51:16;;;;;;;1.70;0.90;;;;;;;17.78;34.32;97270.50;4970987;28;20075;-61
2021/05/30 10:53:46;;;;;;;0.90;0.80;;;;;;;18.01;35.53;97281.16;4984460;28;20042;-63
2021/05/30 10:56:35;;;;;;;1.52;1.00;;;;;;;17.86;33.47;97274.88;4980282;28;20087;-59
2021/05/30 10:59:04;;;;;;;3.97;1.07;;;;;;;17.95;34.44;97279.97;4986165;28;20451;-57
2021/05/30 11:01:40;;;;;;;2.13;0.98;;;;;;;17.83;34.22;97277.63;4984212;28;20557;-61
2021/05/30 11:07:18;;;;;;;1.80;0.93;;;;;;;17.79;32.03;97285.94;4985028;28;20096;-59
2021/05/30 11:09:55;;;;;;;1.60;1.00;;;;;;;17.76;32.50;97281.19;4958934;28;20046;-62
2021/05/30 11:12:22;;;;;;;2.45;1.00;;;;;;;17.95;31.82;97286.31;4991750;28;20081;-61
2021/05/30 11:15:06;;;;;;;1.35;1.02;;;;;;;18.02;34.14;97273.63;4998914;28;20046;-60
2021/05/30 11:17:53;;;;;;;2.10;1.38;;;;;;;17.87;34.04;97276.44;4993964;28;20041;-60
2021/05/30 11:20:43;;;;;;;1.98;1.00;;;;;;;18.72;33.64;97279.97;4979806;28;20460;-59
2021/05/30 11:23:18;;;;;;;2.00;1.08;;;;;;;19.24;32.40;97273.66;4967172;28;20046;-60
2021/05/30 11:25:49;;;;;;;2.17;0.90;;;;;;;18.57;31.15;97278.50;4975482;28;20065;-59
2021/05/30 11:28:21;;;;;;;2.33;1.20;;;;;;;18.73;32.88;97273.25;4979466;28;20054;-61
2021/05/30 11:31:08;;;;;;;3.10;1.25;;;;;;;18.55;33.12;97272.56;4979182;28;20038;-59
2021/05/30 11:33:46;;;;;;;2.70;1.45;;;;;;;19.25;31.28;97272.47;4969808;28;20034;-59
2021/05/30 11:36:11;;;;;;;3.28;1.25;;;;;;;18.47;33.24;97282.91;4959562;28;20073;-59
2021/05/30 11:38:54;;;;;;;2.78;1.10;;;;;;;18.15;32.47;97275.53;4969568;28;20042;-58
2021/05/30 11:41:22;;;;;;;3.28;1.30;;;;;;;17.57;31.74;97274.13;4976555;28;20054;-61
2021/05/30 11:43:54;;;;;;;2.92;1.67;;;;;;;18.02;34.25;97268.84;4974488;28;20433;-60